Terminal Aerodrome Forecast
Issued by NWS

Current Version | Previous Version | Text Only | Print | Product List | Glossary On
Versions: 1 2 3 4 5 6 7 8 9 10 11 12 13 14 15 16 17 18 19 20 21 22 23 24 25 26 27
000
FTUS46 KLOX 020700 AAA
TAFLAX
TAF AMD
KLAX 020709Z 0207/0312 VRB03KT 4SM BR OVC004
     FM021300 VRB03KT 5SM BR OVC006
     FM021600 16005KT 6SM HZ BKN010 BKN200
     FM021900 24007KT P6SM BKN200
     FM022200 25010KT P6SM SCT150 BKN200
     FM030200 26011KT P6SM BKN120 OVC200
     FM030600 25008KT P6SM BKN120 OVC200=

USA.gov is the U.S. government's official web portal to all federal, state and local government web resources and services.